Time;durP1;ratioP1;P1;durP2;ratioP2;P2;SDS_P1;SDS_P2;PMS_P1;PMS_P2;Temp;Humidity;BMP_temperature;BMP_pressure;BME280_temperature;BME280_humidity;BME280_pressure;Samples;Min_cycle;Max_cycle;Signal;HPM_P1;HPM_P2
2022/05/21 00:00:20;;;;;;;8.60;3.50;;;10.30;99.90;;;;;;5025915;28;20095;-67
2022/05/21 00:02:47;;;;;;;4.45;3.35;;;10.20;99.90;;;;;;5024346;28;20042;-67
2022/05/21 00:05:15;;;;;;;7.82;4.15;;;10.20;99.90;;;;;;5023490;28;20499;-67
2022/05/21 00:07:42;;;;;;;9.02;3.83;;;10.30;99.90;;;;;;5024743;28;20392;-66
2022/05/21 00:10:08;;;;;;;11.55;3.53;;;10.20;99.90;;;;;;5024243;28;20551;-67
2022/05/21 00:12:34;;;;;;;7.82;3.72;;;10.20;99.90;;;;;;5025363;28;20447;-67
2022/05/21 00:15:00;;;;;;;14.98;4.18;;;10.20;99.90;;;;;;5025844;28;20083;-67
2022/05/21 00:17:26;;;;;;;7.82;3.50;;;10.20;99.90;;;;;;5025383;28;20045;-67
2022/05/21 00:19:52;;;;;;;6.05;3.53;;;10.30;99.90;;;;;;5025213;28;20041;-67
2022/05/21 00:22:17;;;;;;;8.23;3.92;;;10.20;99.90;;;;;;5023326;28;20139;-67
2022/05/21 00:24:43;;;;;;;6.18;3.33;;;10.20;99.90;;;;;;5025949;28;20044;-67
2022/05/21 00:27:09;;;;;;;10.48;4.60;;;10.20;99.90;;;;;;5023721;28;20076;-67
2022/05/21 00:29:35;;;;;;;8.02;4.30;;;10.20;99.90;;;;;;5024886;28;20071;-67
2022/05/21 00:32:02;;;;;;;8.50;4.50;;;10.20;99.90;;;;;;5023702;28;20053;-67
2022/05/21 00:34:28;;;;;;;9.23;5.18;;;10.20;99.90;;;;;;5024402;28;20053;-67
2022/05/21 00:36:54;;;;;;;8.75;4.72;;;10.20;99.90;;;;;;5025628;28;20042;-67
2022/05/21 00:39:20;;;;;;;11.68;5.35;;;10.20;99.90;;;;;;5023730;28;20049;-67
2022/05/21 00:41:45;;;;;;;13.00;5.72;;;10.30;99.90;;;;;;5024960;28;20046;-67
2022/05/21 00:44:11;;;;;;;14.50;6.05;;;10.30;99.90;;;;;;5025402;28;20448;-67
2022/05/21 00:46:43;;;;;;;14.77;7.25;;;10.30;99.90;;;;;;5025165;28;20038;-67
2022/05/21 00:49:25;;;;;;;11.13;6.10;;;10.40;99.90;;;;;;5025065;28;20527;-67
2022/05/21 00:52:12;;;;;;;;;;;10.40;99.90;;;;;;5025534;28;20052;-66
2022/05/21 00:54:43;;;;;;;13.32;8.20;;;10.40;99.90;;;;;;5024586;28;19932;-67
2022/05/21 00:57:29;;;;;;;16.17;8.63;;;10.50;99.90;;;;;;5025284;28;20491;-67
2022/05/21 01:00:04;;;;;;;15.73;8.68;;;11.70;99.90;;;;;;5026483;28;20100;-67
2022/05/21 01:02:41;;;;;;;17.08;9.00;;;10.60;99.90;;;;;;5025818;28;20205;-67
2022/05/21 01:05:11;;;;;;;16.63;9.05;;;10.70;99.90;;;;;;5026281;28;20484;-67
2022/05/21 01:07:41;;;;;;;24.15;10.50;;;10.70;99.90;;;;;;5026183;28;20041;-67
2022/05/21 01:10:08;;;;;;;18.98;9.95;;;10.70;99.90;;;;;;5023623;28;20607;-67
2022/05/21 01:12:38;;;;;;;22.65;9.88;;;10.80;99.90;;;;;;5024710;28;20138;-67
2022/05/21 01:15:09;;;;;;;22.33;12.13;;;10.80;99.90;;;;;;5022954;28;20107;-67
2022/05/21 01:17:35;;;;;;;19.42;10.77;;;10.80;99.90;;;;;;5023107;28;20041;-67
2022/05/21 01:20:11;;;;;;;18.13;11.43;;;10.90;99.90;;;;;;5024517;28;20034;-68
2022/05/21 01:22:45;;;;;;;22.25;12.65;;;10.90;99.90;;;;;;5025235;28;20034;-67
2022/05/21 01:25:13;;;;;;;21.40;11.10;;;11.00;99.90;;;;;;5023170;28;20112;-67
2022/05/21 01:27:40;;;;;;;23.10;12.15;;;11.00;99.90;;;;;;5023677;28;20072;-67
2022/05/21 01:30:08;;;;;;;17.27;11.95;;;11.00;99.90;;;;;;5022260;28;20042;-67
2022/05/21 01:32:34;;;;;;;15.43;10.45;;;11.00;99.90;;;;;;5027227;28;20052;-67
2022/05/21 01:34:59;;;;;;;17.95;10.40;;;11.00;99.90;;;;;;5028403;28;20037;-68
2022/05/21 01:37:26;;;;;;;16.98;11.02;;;11.00;99.90;;;;;;5029147;28;20041;-67
2022/05/21 01:39:51;;;;;;;15.82;9.52;;;11.00;99.90;;;;;;5028984;28;20108;-67
2022/05/21 01:42:17;;;;;;;17.23;10.75;;;11.00;99.90;;;;;;5029240;28;20658;-67
2022/05/21 01:44:42;;;;;;;17.35;11.23;;;11.00;99.90;;;;;;5028979;28;20042;-67
2022/05/21 01:47:14;;;;;;;19.95;11.15;;;11.10;99.90;;;;;;5028541;28;20038;-67
2022/05/21 01:49:41;;;;;;;13.80;11.52;;;11.10;99.90;;;;;;5028659;28;20041;-67
2022/05/21 01:52:09;;;;;;;16.05;11.40;;;11.10;99.90;;;;;;5027517;28;20053;-67
2022/05/21 01:54:35;;;;;;;15.93;13.30;;;11.20;99.90;;;;;;5028806;28;20426;-67
2022/05/21 01:57:00;;;;;;;21.17;12.93;;;11.20;99.90;;;;;;5028033;28;20045;-67
2022/05/21 01:59:26;;;;;;;18.30;12.88;;;11.20;99.90;;;;;;5028726;28;20049;-68
2022/05/21 02:01:52;;;;;;;17.95;12.88;;;11.30;99.90;;;;;;5029366;28;20542;-67
2022/05/21 02:04:19;;;;;;;24.42;13.00;;;11.30;99.90;;;;;;5028964;28;20049;-66
2022/05/21 02:06:45;;;;;;;22.05;14.65;;;11.40;99.90;;;;;;5028781;28;20099;-67
2022/05/21 02:09:11;;;;;;;22.88;14.02;;;11.40;99.90;;;;;;5029063;28;20128;-67
2022/05/21 02:11:38;;;;;;;25.83;15.40;;;11.40;99.90;;;;;;5029379;28;20045;-67
2022/05/21 02:14:04;;;;;;;23.27;13.50;;;11.50;99.90;;;;;;5028484;28;20074;-67
2022/05/21 02:16:30;;;;;;;24.58;13.63;;;11.60;99.90;;;;;;5028433;28;20507;-67
2022/05/21 02:18:57;;;;;;;25.27;14.27;;;11.60;99.90;;;;;;5027165;28;20073;-67
2022/05/21 02:21:23;;;;;;;28.40;15.52;;;11.70;99.90;;;;;;5026043;28;20096;-67
2022/05/21 02:23:49;;;;;;;25.80;13.15;;;11.70;99.90;;;;;;5027990;28;20448;-67
2022/05/21 02:26:17;;;;;;;24.33;16.48;;;11.80;99.90;;;;;;5026908;28;20057;-67
2022/05/21 02:28:43;;;;;;;24.17;14.02;;;11.90;99.90;;;;;;5029068;28;20045;-67
2022/05/21 02:31:08;;;;;;;32.53;14.52;;;12.00;99.90;;;;;;5028504;28;20053;-67
2022/05/21 02:33:34;;;;;;;29.00;14.50;;;12.10;99.90;;;;;;5027776;28;20037;-67
2022/05/21 02:35:59;;;;;;;19.05;13.18;;;12.10;99.90;;;;;;5027226;28;20053;-67
2022/05/21 02:41:12;;;;;;;32.00;12.23;;;12.20;99.90;;;;;;5026845;28;20049;-67
2022/05/21 02:43:38;;;;;;;24.30;11.55;;;12.20;99.90;;;;;;5028077;28;20064;-67
2022/05/21 02:46:03;;;;;;;20.10;10.98;;;12.30;99.90;;;;;;5027737;28;20491;-67
2022/05/21 02:48:30;;;;;;;28.33;10.73;;;12.30;99.90;;;;;;5026767;28;20041;-67
2022/05/21 02:50:56;;;;;;;19.02;9.63;;;12.30;99.90;;;;;;5028289;28;20045;-67
2022/05/21 02:53:22;;;;;;;30.55;10.48;;;12.40;99.90;;;;;;5027126;28;20053;-67
2022/05/21 02:55:49;;;;;;;16.50;7.88;;;12.40;99.90;;;;;;5028024;28;20419;-67
2022/05/21 02:58:15;;;;;;;22.33;8.98;;;12.40;99.90;;;;;;5027347;28;20037;-67
2022/05/21 03:00:42;;;;;;;35.53;10.23;;;12.40;99.90;;;;;;5026305;28;20128;-67
2022/05/21 03:03:08;;;;;;;24.50;8.05;;;12.40;99.90;;;;;;5026408;28;20044;-66
2022/05/21 03:05:34;;;;;;;20.73;7.15;;;12.40;99.90;;;;;;5026884;28;20133;-67
2022/05/21 03:08:00;;;;;;;24.70;8.02;;;12.40;99.90;;;;;;5026301;28;20049;-67
2022/05/21 03:10:30;;;;;;;27.73;7.53;;;12.40;99.90;;;;;;5026502;28;20037;-67
2022/05/21 03:13:04;;;;;;;22.65;7.50;;;12.50;99.90;;;;;;5024994;28;20171;-67
2022/05/21 03:15:36;;;;;;;19.27;7.15;;;12.50;99.90;;;;;;5024771;28;20037;-67
2022/05/21 03:18:06;;;;;;;;;;;12.50;99.90;;;;;;5026316;28;20041;-67
2022/05/21 03:20:32;;;;;;;27.73;6.28;;;12.50;99.90;;;;;;5024511;28;19936;-67
2022/05/21 03:22:58;;;;;;;20.83;6.65;;;12.50;99.90;;;;;;5025887;28;20037;-67
2022/05/21 03:25:23;;;;;;;31.05;6.60;;;12.50;99.90;;;;;;5026601;28;20048;-67
2022/05/21 03:27:50;;;;;;;21.55;6.78;;;12.50;99.90;;;;;;5025507;28;20116;-67
2022/05/21 03:30:19;;;;;;;19.33;5.38;;;12.50;99.90;;;;;;5024995;28;20049;-67
2022/05/21 03:32:45;;;;;;;13.93;5.18;;;12.50;99.90;;;;;;5027804;28;20466;-66
2022/05/21 03:35:13;;;;;;;18.42;4.57;;;12.50;99.90;;;;;;5026936;28;20040;-67
2022/05/21 03:37:39;;;;;;;14.90;5.57;;;12.60;99.90;;;;;;5026969;28;20049;-67
2022/05/21 03:40:07;;;;;;;17.60;4.68;;;12.60;99.90;;;;;;5026799;28;20459;-67
2022/05/21 03:42:33;;;;;;;19.58;4.72;;;12.60;99.90;;;;;;5027258;28;20053;-67
2022/05/21 03:44:58;;;;;;;18.83;5.60;;;12.60;99.90;;;;;;5025394;28;20765;-67
2022/05/21 03:47:24;;;;;;;23.70;6.07;;;12.60;99.90;;;;;;5026254;28;20424;-67
2022/05/21 03:49:49;;;;;;;24.60;6.45;;;12.60;99.90;;;;;;5027095;28;20046;-67
2022/05/21 03:52:15;;;;;;;17.67;4.80;;;12.60;99.90;;;;;;5024624;28;20188;-67
2022/05/21 03:54:41;;;;;;;13.05;4.70;;;12.60;99.90;;;;;;5025693;28;20045;-67
2022/05/21 03:57:07;;;;;;;19.63;5.22;;;12.60;99.90;;;;;;5027013;28;20147;-66
2022/05/21 03:59:34;;;;;;;12.82;4.68;;;12.60;99.90;;;;;;5026200;28;20042;-67
2022/05/21 04:02:01;;;;;;;15.50;5.30;;;12.60;99.90;;;;;;5026342;28;20049;-67
2022/05/21 04:04:27;;;;;;;24.05;6.28;;;12.60;99.90;;;;;;5026715;28;20387;-67
2022/05/21 04:06:52;;;;;;;16.08;4.68;;;12.50;99.90;;;;;;5026471;28;20210;-67
2022/05/21 04:09:18;;;;;;;17.65;5.20;;;12.60;99.90;;;;;;5026644;28;20037;-67
2022/05/21 04:11:43;;;;;;;14.05;4.03;;;12.60;99.90;;;;;;5022232;28;20052;-67
2022/05/21 04:14:11;;;;;;;12.85;3.97;;;12.60;99.90;;;;;;5025950;28;20045;-67
2022/05/21 04:16:36;;;;;;;18.60;4.38;;;12.60;99.90;;;;;;5025247;28;20041;-67
2022/05/21 04:19:02;;;;;;;15.82;4.32;;;12.60;99.90;;;;;;5025099;28;20617;-67
2022/05/21 04:21:28;;;;;;;20.52;3.97;;;12.50;99.90;;;;;;5023154;28;20476;-67
2022/05/21 04:23:55;;;;;;;11.63;3.60;;;12.50;99.90;;;;;;5025216;28;20103;-67
2022/05/21 04:26:21;;;;;;;17.00;4.28;;;12.50;99.90;;;;;;5022114;28;20041;-67
2022/05/21 04:28:46;;;;;;;14.98;3.63;;;12.50;99.90;;;;;;5025648;28;20037;-67
2022/05/21 04:31:12;;;;;;;18.85;4.45;;;12.50;99.90;;;;;;5025167;28;20077;-67
2022/05/21 04:33:37;;;;;;;11.55;3.60;;;12.50;99.90;;;;;;5022647;28;20154;-67
2022/05/21 04:36:18;;;;;;;9.02;3.50;;;12.50;99.90;;;;;;5025369;28;20099;-67
2022/05/21 04:38:46;;;;;;;13.45;3.28;;;12.60;99.90;;;;;;5025618;28;20056;-67
2022/05/21 04:41:12;;;;;;;8.63;2.80;;;12.50;99.90;;;;;;5023523;28;20494;-67
2022/05/21 04:43:37;;;;;;;14.55;3.25;;;12.50;99.90;;;;;;5025310;28;20041;-67
2022/05/21 04:46:03;;;;;;;14.80;3.20;;;12.50;99.90;;;;;;5024448;28;20160;-67
2022/05/21 04:48:29;;;;;;;14.02;3.72;;;12.50;99.90;;;;;;5023029;28;20041;-67
2022/05/21 04:50:59;;;;;;;11.07;3.25;;;12.50;99.90;;;;;;5024632;28;20495;-67
2022/05/21 04:53:25;;;;;;;15.65;3.78;;;12.30;99.90;;;;;;5024106;28;20069;-67
2022/05/21 04:55:51;;;;;;;17.05;3.25;;;12.60;99.90;;;;;;5024618;28;20125;-67
2022/05/21 04:58:16;;;;;;;12.35;3.45;;;12.60;99.90;;;;;;5024367;28;20529;-67
2022/05/21 05:00:42;;;;;;;9.68;3.38;;;12.60;99.90;;;;;;5023184;28;20609;-67
2022/05/21 05:03:16;;;;;;;12.68;3.78;;;12.60;99.90;;;;;;5024153;28;20120;-67
2022/05/21 05:05:42;;;;;;;11.98;3.67;;;12.60;99.90;;;;;;5023568;28;20167;-67
2022/05/21 05:08:09;;;;;;;8.35;2.75;;;12.60;99.90;;;;;;5028654;28;20100;-67
2022/05/21 05:10:36;;;;;;;12.35;2.78;;;12.60;99.90;;;;;;5029238;28;20438;-67
2022/05/21 05:13:02;;;;;;;13.10;3.35;;;12.70;99.90;;;;;;5029712;28;20041;-67
2022/05/21 05:15:28;;;;;;;7.60;2.90;;;12.70;99.90;;;;;;5027827;28;20033;-67
2022/05/21 05:18:03;;;;;;;14.88;3.25;;;12.70;99.90;;;;;;5029499;28;20977;-67
2022/05/21 05:20:31;;;;;;;8.43;3.47;;;12.70;99.90;;;;;;5028338;28;20061;-67
2022/05/21 05:22:57;;;;;;;10.02;3.13;;;12.80;99.90;;;;;;5023903;28;20080;-67
2022/05/21 05:25:23;;;;;;;11.45;3.75;;;12.80;99.90;;;;;;5028664;28;20085;-67
2022/05/21 05:27:50;;;;;;;10.50;3.20;;;12.80;99.90;;;;;;5028259;28;20123;-67
2022/05/21 05:30:17;;;;;;;19.05;3.95;;;12.90;99.90;;;;;;5027454;28;20045;-67
2022/05/21 05:32:43;;;;;;;11.18;2.58;;;12.80;99.90;;;;;;5028199;28;20053;-67
2022/05/21 05:35:09;;;;;;;12.00;4.07;;;12.90;99.90;;;;;;5029008;28;20048;-67
2022/05/21 05:37:35;;;;;;;12.23;3.10;;;12.90;99.90;;;;;;5028126;28;20095;-67
2022/05/21 05:40:01;;;;;;;12.75;3.22;;;12.90;99.90;;;;;;5029022;28;20041;-67
2022/05/21 05:42:27;;;;;;;13.52;2.95;;;12.90;99.90;;;;;;5026823;28;20068;-67
2022/05/21 05:44:53;;;;;;;11.95;3.10;;;13.80;99.90;;;;;;5027336;28;20294;-67
2022/05/21 05:47:19;;;;;;;7.68;2.00;;;13.00;99.90;;;;;;5028622;28;20049;-67
2022/05/21 05:49:44;;;;;;;10.38;3.03;;;13.00;99.90;;;;;;5027599;28;20080;-67
2022/05/21 05:52:10;;;;;;;11.13;3.17;;;13.10;99.90;;;;;;5025837;28;20041;-67
2022/05/21 05:54:37;;;;;;;10.60;3.03;;;13.10;99.90;;;;;;5027772;28;20038;-67
2022/05/21 05:57:07;;;;;;;10.25;2.75;;;13.10;99.90;;;;;;5028323;28;20048;-67
2022/05/21 05:59:51;;;;;;;8.25;2.95;;;13.20;99.90;;;;;;5025193;28;20583;-67
2022/05/21 06:05:05;;;;;;;10.68;3.40;;;13.20;99.90;;;;;;5027779;28;20053;-67
2022/05/21 06:07:31;;;;;;;13.93;3.42;;;13.30;99.90;;;;;;5027286;28;20121;-67
2022/05/21 06:10:03;;;;;;;12.73;3.30;;;13.30;99.90;;;;;;5028602;28;20454;-67
2022/05/21 06:12:29;;;;;;;16.17;3.30;;;13.40;99.90;;;;;;5027001;28;20376;-67
2022/05/21 06:14:54;;;;;;;10.98;3.65;;;13.40;99.90;;;;;;5028098;28;20052;-67
2022/05/21 06:17:20;;;;;;;11.98;3.22;;;13.50;99.90;;;;;;5026950;28;20406;-67
2022/05/21 06:19:46;;;;;;;10.13;3.25;;;13.50;99.90;;;;;;5026294;28;20448;-67
2022/05/21 06:22:14;;;;;;;11.07;3.85;;;13.50;99.90;;;;;;5027922;28;20491;-67
2022/05/21 06:24:40;;;;;;;13.60;3.03;;;13.60;99.90;;;;;;5026701;28;20061;-67
2022/05/21 06:27:06;;;;;;;6.75;2.60;;;13.60;99.90;;;;;;5025944;28;20033;-67
2022/05/21 06:29:32;;;;;;;10.45;3.05;;;13.60;99.90;;;;;;5026869;28;20038;-67
2022/05/21 06:31:58;;;;;;;10.77;3.35;;;13.60;99.90;;;;;;5027614;28;20757;-68
2022/05/21 06:34:24;;;;;;;8.10;2.47;;;13.60;99.90;;;;;;5026847;28;20045;-67
2022/05/21 06:36:50;;;;;;;12.68;2.45;;;13.70;99.90;;;;;;5027604;28;20065;-67
2022/05/21 06:39:15;;;;;;;8.10;2.25;;;13.70;99.90;;;;;;5026932;28;20488;-67
2022/05/21 06:41:41;;;;;;;8.30;2.17;;;13.80;99.90;;;;;;5027066;28;20045;-67
2022/05/21 06:44:07;;;;;;;17.65;3.63;;;13.90;99.90;;;;;;5026371;28;20064;-67
2022/05/21 06:46:33;;;;;;;9.48;2.53;;;13.90;99.90;;;;;;5026533;28;20392;-67
2022/05/21 06:48:59;;;;;;;8.13;2.80;;;13.90;99.90;;;;;;5027498;28;20052;-67
2022/05/21 06:51:24;;;;;;;9.43;3.17;;;13.90;99.90;;;;;;5026067;28;20567;-67
2022/05/21 06:53:50;;;;;;;14.48;3.35;;;13.90;99.90;;;;;;5025607;28;20040;-67
2022/05/21 06:56:16;;;;;;;14.70;3.30;;;13.90;99.90;;;;;;5026971;28;20076;-67
2022/05/21 06:58:45;;;;;;;10.18;2.58;;;13.90;99.90;;;;;;5025639;28;20054;-67
2022/05/21 07:01:13;;;;;;;12.23;3.13;;;13.80;99.90;;;;;;5023854;28;20421;-67
2022/05/21 07:03:39;;;;;;;15.40;3.65;;;13.90;99.90;;;;;;5026018;28;20060;-67
2022/05/21 07:08:49;;;;;;;15.73;3.78;;;14.00;99.90;;;;;;5024726;28;20045;-67
2022/05/21 07:11:15;;;;;;;8.23;2.60;;;14.00;99.90;;;;;;5021998;28;20095;-67
2022/05/21 07:13:41;;;;;;;9.82;2.90;;;14.10;99.90;;;;;;5026948;28;20645;-67
2022/05/21 07:16:10;;;;;;;9.52;2.85;;;14.20;99.90;;;;;;5022561;28;20065;-68
2022/05/21 07:18:39;;;;;;;11.98;3.08;;;14.30;99.90;;;;;;5026952;28;20492;-67
2022/05/21 07:21:04;;;;;;;12.68;3.33;;;14.40;99.90;;;;;;5026252;28;20045;-67
2022/05/21 07:23:30;;;;;;;9.68;2.67;;;14.40;99.90;;;;;;5026147;28;20049;-67
2022/05/21 07:25:55;;;;;;;14.88;4.30;;;14.50;99.90;;;;;;5027916;28;20073;-67
2022/05/21 07:28:21;;;;;;;14.60;3.88;;;14.60;99.90;;;;;;5026489;28;20041;-67
2022/05/21 07:30:47;;;;;;;6.15;2.50;;;14.60;99.90;;;;;;5026805;28;20053;-67
2022/05/21 07:33:18;;;;;;;17.80;3.28;;;14.70;99.90;;;;;;5026744;28;20047;-67
2022/05/21 07:35:45;;;;;;;10.45;2.72;;;14.80;99.90;;;;;;5026245;28;20403;-67
2022/05/21 07:38:12;;;;;;;11.50;2.75;;;14.90;99.90;;;;;;5022928;28;20037;-67
2022/05/21 07:40:39;;;;;;;13.50;2.92;;;14.90;99.90;;;;;;5026811;28;20077;-71
2022/05/21 07:43:09;;;;;;;9.68;2.70;;;14.80;99.90;;;;;;5025127;28;20053;-70
2022/05/21 07:45:38;;;;;;;10.25;2.72;;;14.70;99.90;;;;;;5021296;28;20055;-72
2022/05/21 07:48:05;;;;;;;13.05;2.97;;;14.80;99.90;;;;;;5019232;28;20053;-77
2022/05/21 07:50:32;;;;;;;9.98;2.63;;;14.90;99.90;;;;;;5021348;28;20108;-69
2022/05/21 07:52:58;;;;;;;7.78;3.13;;;14.90;99.90;;;;;;5026327;28;20048;-71
2022/05/21 07:55:23;;;;;;;25.58;4.47;;;15.00;99.90;;;;;;5026232;28;20049;-69
2022/05/21 07:57:49;;;;;;;9.55;2.92;;;14.90;99.90;;;;;;5025824;28;20042;-70
2022/05/21 08:00:17;;;;;;;15.90;3.45;;;14.90;99.90;;;;;;5025511;28;20089;-68
2022/05/21 08:02:45;;;;;;;13.20;2.72;;;14.90;99.90;;;;;;5024264;28;20127;-69
2022/05/21 08:05:11;;;;;;;10.02;3.15;;;15.00;99.90;;;;;;5025743;28;20466;-68
2022/05/21 08:07:40;;;;;;;13.23;2.78;;;15.10;99.90;;;;;;5025331;28;20037;-69
2022/05/21 08:10:06;;;;;;;8.35;2.45;;;15.20;99.90;;;;;;5020032;28;20038;-69
2022/05/21 08:12:34;;;;;;;8.68;2.75;;;15.30;99.90;;;;;;5024737;28;20045;-68
2022/05/21 08:15:00;;;;;;;17.10;3.25;;;15.40;99.90;;;;;;5018068;28;20042;-69
2022/05/21 08:17:26;;;;;;;10.23;2.38;;;15.30;99.90;;;;;;5015881;28;20042;-69
2022/05/21 08:19:51;;;;;;;9.70;2.95;;;15.30;99.90;;;;;;5023828;28;20397;-69
2022/05/21 08:27:45;;;;;;;12.07;2.45;;;15.40;99.90;;;;;;5025177;28;20042;-69
2022/05/21 08:30:11;;;;;;;10.43;2.65;;;15.60;99.90;;;;;;5025713;28;20053;-70
2022/05/21 08:32:37;;;;;;;10.40;2.30;;;15.70;99.90;;;;;;5021877;28;20057;-70
2022/05/21 08:35:03;;;;;;;11.55;2.58;;;15.70;99.90;;;;;;5021472;28;20404;-69
2022/05/21 08:37:30;;;;;;;9.32;2.78;;;15.60;99.90;;;;;;5023114;28;20049;-70
2022/05/21 08:39:55;;;;;;;25.40;3.50;;;15.60;99.90;;;;;;5023691;28;20045;-69
2022/05/21 08:42:34;;;;;;;10.07;2.90;;;15.60;99.90;;;;;;5023245;28;20133;-69
2022/05/21 08:45:22;;;;;;;12.25;2.85;;;15.60;99.90;;;;;;5024375;28;20132;-69
2022/05/21 08:48:03;;;;;;;11.25;2.50;;;15.70;99.90;;;;;;5021954;28;20055;-70
2022/05/21 08:50:32;;;;;;;9.93;3.00;;;15.80;99.90;;;;;;5022314;28;20046;-70
2022/05/21 08:53:09;;;;;;;5.00;1.80;;;15.90;99.90;;;;;;5021477;28;20045;-69
2022/05/21 08:55:39;;;;;;;8.50;2.28;;;15.90;99.90;;;;;;5022786;28;20476;-70
2022/05/21 08:58:14;;;;;;;15.60;2.90;;;15.80;99.90;;;;;;5023260;28;20041;-70
2022/05/21 09:00:46;;;;;;;11.25;2.55;;;15.80;99.90;;;;;;5023759;28;20089;-70
2022/05/21 09:03:15;;;;;;;9.15;2.28;;;15.70;99.90;;;;;;5023943;28;20108;-70
2022/05/21 09:05:56;;;;;;;8.55;2.38;;;15.70;99.90;;;;;;5021901;28;20092;-69
2022/05/21 09:08:37;;;;;;;7.75;2.17;;;15.70;99.90;;;;;;5017098;28;20171;-70
2022/05/21 09:11:11;;;;;;;11.63;2.67;;;15.80;99.90;;;;;;5024333;28;20486;-69
2022/05/21 09:14:14;;;;;;;6.95;2.20;;;15.80;99.90;;;;;;5023960;28;20053;-70
2022/05/21 09:16:54;;;;;;;11.38;2.22;;;15.90;99.90;;;;;;5020248;28;20108;-69
2022/05/21 09:19:45;;;;;;;9.38;2.45;;;16.00;99.90;;;;;;5025212;28;20045;-70
2022/05/21 09:22:16;;;;;;;7.15;1.73;;;16.10;99.90;;;;;;5015294;28;20447;-69
2022/05/21 09:24:46;;;;;;;6.65;2.20;;;16.00;99.90;;;;;;5010475;28;20069;-69
2022/05/21 09:27:35;;;;;;;6.65;1.85;;;16.10;99.90;;;;;;5005065;28;20373;-70
2022/05/21 09:30:14;;;;;;;11.02;2.53;;;16.20;99.90;;;;;;5008389;28;20680;-70
2022/05/21 09:32:42;;;;;;;5.22;1.50;;;16.20;99.90;;;;;;5017249;28;20041;-69
2022/05/21 09:35:13;;;;;;;7.60;1.75;;;16.20;99.90;;;;;;5023831;28;20044;-69
2022/05/21 09:37:40;;;;;;;7.07;2.00;;;16.10;99.90;;;;;;5022616;28;20487;-69
2022/05/21 09:40:34;;;;;;;4.63;1.50;;;16.00;99.90;;;;;;5021791;28;20045;-70
2022/05/21 09:45:21;;;;;;;10.90;2.65;;;15.90;99.90;;;;;;5017809;28;20502;-69
2022/05/21 09:46:26;;;;;;;6.68;2.35;;;15.80;99.90;;;;;;5022680;28;20124;-69
2022/05/21 09:48:53;;;;;;;11.15;2.15;;;15.80;99.90;;;;;;5016291;28;20396;-69
2022/05/21 09:51:24;;;;;;;11.23;2.38;;;15.70;99.90;;;;;;5022577;28;20053;-70
2022/05/21 09:53:50;;;;;;;6.30;1.92;;;15.70;99.90;;;;;;5023108;28;20045;-68
2022/05/21 09:56:28;;;;;;;7.03;2.03;;;15.90;99.90;;;;;;5026237;28;20359;-69
2022/05/21 09:59:14;;;;;;;9.65;2.42;;;15.90;99.90;;;;;;5035408;28;20120;-70
2022/05/21 10:01:44;;;;;;;8.05;2.95;;;16.00;99.90;;;;;;5027734;28;20076;-70
2022/05/21 10:04:43;;;;;;;11.30;2.22;;;16.00;99.90;;;;;;5023668;28;20041;-71
2022/05/21 10:13:17;;;;;;;10.60;2.53;;;15.90;99.90;;;;;;5022753;28;20053;-70
2022/05/21 10:15:48;;;;;;;7.95;2.25;;;15.90;99.90;;;;;;5021320;28;20087;-70
2022/05/21 10:18:28;;;;;;;7.15;1.88;;;15.80;99.90;;;;;;5025640;28;20046;-70
2022/05/21 10:21:03;;;;;;;10.88;2.47;;;15.90;99.90;;;;;;5025493;28;20068;-69
2022/05/21 10:23:48;;;;;;;8.45;2.25;;;16.00;99.90;;;;;;5026839;28;20049;-68
2022/05/21 10:26:38;;;;;;;7.50;2.13;;;16.50;99.90;;;;;;5027371;28;20611;-69
2022/05/21 10:29:22;;;;;;;6.80;2.20;;;16.70;99.90;;;;;;5023466;28;20475;-68
2022/05/21 10:32:00;;;;;;;9.95;3.08;;;16.70;99.90;;;;;;5026535;28;20041;-69
2022/05/21 10:34:41;;;;;;;9.38;2.80;;;16.60;99.90;;;;;;5025988;28;20049;-69
2022/05/21 10:37:19;;;;;;;10.07;1.83;;;16.60;99.90;;;;;;5025075;28;20170;-69
2022/05/21 10:39:47;;;;;;;10.40;2.40;;;16.60;99.90;;;;;;5025400;28;20076;-69
2022/05/21 10:42:47;;;;;;;7.15;2.58;;;16.80;99.90;;;;;;5021155;28;20045;-70
2022/05/21 10:45:29;;;;;;;8.10;1.90;;;17.10;99.90;;;;;;5022468;28;20547;-70
2022/05/21 10:48:21;;;;;;;6.78;1.77;;;17.00;99.90;;;;;;5025834;28;20045;-69
2022/05/21 10:51:10;;;;;;;8.60;2.53;;;16.90;99.90;;;;;;5025930;28;20686;-69
2022/05/21 10:54:05;;;;;;;8.90;2.25;;;17.00;99.90;;;;;;5026317;28;20090;-68
2022/05/21 10:56:56;;;;;;;7.28;1.77;;;17.30;99.90;;;;;;4992997;28;20057;-69
2022/05/21 11:00:03;;;;;;;6.35;1.45;;;17.40;99.90;;;;;;5023798;28;20104;-69
2022/05/21 11:03:06;;;;;;;9.15;2.30;;;17.20;99.90;;;;;;5003530;28;20052;-69
2022/05/21 11:05:37;;;;;;;10.18;1.92;;;17.00;99.90;;;;;;5022205;28;20045;-69
2022/05/21 11:08:14;;;;;;;8.20;2.00;;;16.80;99.90;;;;;;5024882;28;20087;-69
2022/05/21 11:11:09;;;;;;;8.45;2.55;;;16.80;99.90;;;;;;5026989;28;20069;-70
2022/05/21 11:13:46;;;;;;;8.77;1.92;;;17.10;99.90;;;;;;5023524;28;20049;-70
2022/05/21 11:16:15;;;;;;;6.55;1.58;;;17.40;99.90;;;;;;5017851;28;20088;-70
2022/05/21 11:18:55;;;;;;;4.25;1.48;;;17.60;99.90;;;;;;5021864;28;20558;-70
2022/05/21 11:21:41;;;;;;;9.05;2.40;;;17.50;99.90;;;;;;5018197;28;20073;-70
2022/05/21 11:24:19;;;;;;;5.25;1.73;;;17.50;99.90;;;;;;5018694;28;20053;-70
2022/05/21 11:26:56;;;;;;;6.25;1.98;;;17.40;99.90;;;;;;5018891;28;20103;-70
2022/05/21 11:29:58;;;;;;;6.90;2.33;;;17.30;99.90;;;;;;5017936;28;20092;-69
2022/05/21 11:38:30;;;;;;;7.40;2.45;;;17.40;99.90;;;;;;5020889;28;20729;-70
2022/05/21 11:46:55;;;;;;;7.65;2.58;;;17.70;99.90;;;;;;5019203;28;20148;-70
2022/05/21 11:49:31;;;;;;;9.38;2.35;;;17.90;99.90;;;;;;5021769;28;20547;-70
2022/05/21 11:52:20;;;;;;;7.55;2.22;;;18.00;99.90;;;;;;5017841;28;20049;-70
2022/05/21 11:54:45;;;;;;;8.50;1.90;;;18.20;99.90;;;;;;5019443;28;20175;-70
2022/05/21 11:57:28;;;;;;;6.82;2.13;;;18.20;99.90;;;;;;5018504;28;20158;-69
2022/05/21 11:59:55;;;;;;;11.55;2.50;;;18.10;99.90;;;;;;5022820;28;20632;-68
2022/05/21 12:02:27;;;;;;;3.72;2.22;;;17.90;99.90;;;;;;5022805;28;20046;-70
2022/05/21 12:05:14;;;;;;;8.95;2.17;;;17.80;99.90;;;;;;5020998;28;20045;-69
2022/05/21 12:07:48;;;;;;;4.35;1.52;;;17.70;99.90;;;;;;5018558;28;20054;-69
2022/05/21 12:10:30;;;;;;;5.43;2.13;;;17.80;99.90;;;;;;5020058;28;20033;-69
2022/05/21 12:13:16;;;;;;;8.57;1.90;;;18.00;99.90;;;;;;5019342;28;20044;-69
2022/05/21 12:15:51;;;;;;;10.57;2.15;;;18.20;99.90;;;;;;5016124;28;20069;-70
2022/05/21 12:18:40;;;;;;;11.82;1.92;;;18.40;99.90;;;;;;5021361;28;20056;-69
2022/05/21 12:21:12;;;;;;;6.10;1.77;;;18.50;99.90;;;;;;5012312;28;20042;-69
2022/05/21 12:23:41;;;;;;;11.65;1.90;;;18.70;99.90;;;;;;5021110;28;20111;-69
2022/05/21 12:26:20;;;;;;;4.93;1.75;;;18.70;99.90;;;;;;5026122;28;20045;-69
2022/05/21 12:29:10;;;;;;;7.63;1.88;;;18.90;99.90;;;;;;5027155;28;20052;-70
2022/05/21 12:31:51;;;;;;;9.57;1.85;;;19.10;99.90;;;;;;5019449;28;20089;-69
2022/05/21 12:34:23;;;;;;;7.50;1.88;;;19.30;99.90;;;;;;5017916;28;20164;-69
2022/05/21 12:37:20;;;;;;;4.43;1.20;;;19.20;99.90;;;;;;5017522;28;20052;-69
2022/05/21 12:39:50;;;;;;;6.20;1.17;;;19.20;99.90;;;;;;5006903;28;20065;-69
2022/05/21 12:42:25;;;;;;;5.82;1.67;;;19.20;99.90;;;;;;5014173;28;20048;-69
2022/05/21 12:44:52;;;;;;;10.10;1.98;;;19.10;99.90;;;;;;5016366;28;20077;-69
2022/05/21 12:47:43;;;;;;;5.60;1.83;;;18.90;99.90;;;;;;5017469;28;20120;-70
2022/05/21 12:50:18;;;;;;;3.67;1.63;;;19.00;99.90;;;;;;5014291;28;20041;-70
2022/05/21 12:52:50;;;;;;;4.95;1.58;;;19.20;99.90;;;;;;5025323;28;20049;-70
2022/05/21 12:55:31;;;;;;;4.00;1.40;;;19.10;99.90;;;;;;5025049;28;20427;-70
2022/05/21 12:58:09;;;;;;;4.18;1.15;;;18.70;99.90;;;;;;5024179;28;20045;-70
2022/05/21 13:00:37;;;;;;;3.60;1.10;;;18.50;99.90;;;;;;5026109;28;20089;-69
2022/05/21 13:03:10;;;;;;;5.80;1.45;;;18.50;99.90;;;;;;5041075;28;20425;-70
2022/05/21 13:06:00;;;;;;;4.60;1.13;;;18.70;99.90;;;;;;5035382;28;20790;-70
2022/05/21 13:08:28;;;;;;;10.15;1.67;;;19.10;99.90;;;;;;5025908;28;20491;-70
2022/05/21 13:11:00;;;;;;;4.90;1.35;;;19.20;99.90;;;;;;5025887;28;20046;-70
2022/05/21 13:13:26;;;;;;;5.22;1.10;;;19.30;99.90;;;;;;5024442;28;20049;-70
2022/05/21 13:15:59;;;;;;;3.63;1.48;;;19.60;99.90;;;;;;5026596;28;20038;-70
2022/05/21 13:18:40;;;;;;;4.93;1.42;;;19.60;99.90;;;;;;5026425;28;20049;-70
2022/05/21 13:21:40;;;;;;;4.07;1.30;;;19.70;99.90;;;;;;5023110;28;20045;-71
2022/05/21 13:24:42;;;;;;;3.65;0.80;;;19.50;99.90;;;;;;5025751;28;20105;-70
2022/05/21 13:27:09;;;;;;;7.85;1.60;;;19.10;99.90;;;;;;5006592;28;20496;-72
2022/05/21 13:29:35;;;;;;;5.03;1.35;;;19.00;99.90;;;;;;5019605;28;20116;-71
2022/05/21 13:32:13;;;;;;;8.98;1.63;;;19.10;99.90;;;;;;5028418;28;20148;-71